Time;durP1;ratioP1;P1;durP2;ratioP2;P2;SDS_P1;SDS_P2;PMS_P1;PMS_P2;Temp;Humidity;BMP_temperature;BMP_pressure;BME280_temperature;BME280_humidity;BME280_pressure;Samples;Min_cycle;Max_cycle;Signal;HPM_P1;HPM_P2
2021/10/27 00:02:01;;;;;;;1999.90;999.90;;;;;;;1.04;100.00;96497.28;5046419;28;20230;-68
2021/10/27 00:04:28;;;;;;;1999.90;999.90;;;;;;;1.03;100.00;96501.63;5046226;28;20270;-68
2021/10/27 00:06:55;;;;;;;1999.90;999.90;;;;;;;1.08;100.00;96490.75;5047791;28;20565;-68
2021/10/27 00:09:22;;;;;;;1999.90;999.90;;;;;;;1.14;100.00;96493.25;5050160;28;20291;-68
2021/10/27 00:11:49;;;;;;;1999.90;999.90;;;;;;;1.12;100.00;96491.88;5049451;28;20295;-68
2021/10/27 00:14:17;;;;;;;1999.90;999.90;;;;;;;1.12;100.00;96491.88;5049405;28;20255;-68
2021/10/27 00:16:44;;;;;;;1999.90;999.90;;;;;;;1.01;100.00;96497.69;5049621;28;20197;-68
2021/10/27 00:19:12;;;;;;;1999.90;999.90;;;;;;;0.63;99.21;96490.06;5049702;28;20193;-68
2021/10/27 00:21:39;;;;;;;1999.90;999.90;;;;;;;0.57;98.73;96496.78;5049452;28;20197;-68
2021/10/27 00:24:06;;;;;;;1999.90;999.90;;;;;;;0.61;98.62;96497.94;5049337;28;20209;-68
2021/10/27 00:26:33;;;;;;;1999.90;999.90;;;;;;;0.60;98.04;96490.50;5049338;28;20257;-69
2021/10/27 00:29:00;;;;;;;1999.90;999.90;;;;;;;0.60;97.81;96490.50;5049635;28;20301;-69
2021/10/27 00:31:28;;;;;;;1999.90;999.90;;;;;;;0.53;98.63;96494.84;5049212;28;20988;-69
2021/10/27 00:33:55;;;;;;;1999.90;999.90;;;;;;;0.40;99.10;96490.56;5049648;28;20202;-69
2021/10/27 00:36:22;;;;;;;1999.90;999.90;;;;;;;0.34;98.69;96491.41;5049017;28;20239;-69
2021/10/27 00:38:49;;;;;;;1999.90;999.90;;;;;;;0.33;98.43;96485.50;5049519;28;20261;-69
2021/10/27 00:41:17;;;;;;;1999.90;999.90;;;;;;;0.35;97.76;96487.84;5049302;28;20274;-69
2021/10/27 00:43:44;;;;;;;1999.90;999.90;;;;;;;0.27;97.73;96493.19;5049020;28;20252;-69
2021/10/27 00:46:19;;;;;;;1999.90;999.90;;;;;;;0.12;98.35;96487.56;5049396;28;20246;-68
2021/10/27 00:48:49;;;;;;;1999.90;999.90;;;;;;;0.06;99.08;96486.59;5049157;28;20230;-69
2021/10/27 00:51:17;;;;;;;1999.90;999.90;;;;;;;0.26;99.34;96481.41;5049017;28;20193;-69
2021/10/27 00:53:46;;;;;;;1999.90;999.90;;;;;;;0.23;99.83;96476.72;5049216;28;20200;-69
2021/10/27 00:56:14;;;;;;;1999.90;999.90;;;;;;;0.04;100.00;96485.25;5049146;28;20257;-69
2021/10/27 00:58:41;;;;;;;1999.90;999.90;;;;;;;0.20;100.00;96474.56;5049149;28;20201;-68
2021/10/27 01:01:08;;;;;;;1999.90;999.90;;;;;;;0.28;100.00;96477.66;5049115;28;20684;-69
2021/10/27 01:03:36;;;;;;;1999.90;999.90;;;;;;;0.21;100.00;96478.66;5048789;28;20679;-68
2021/10/27 01:06:06;;;;;;;1999.90;999.90;;;;;;;-0.04;100.00;96487.03;5048991;28;20197;-69
2021/10/27 01:08:34;;;;;;;1999.90;999.90;;;;;;;-0.01;100.00;96486.63;5048671;28;20209;-69
2021/10/27 01:11:02;;;;;;;1999.90;999.90;;;;;;;-0.11;100.00;96478.63;5048580;28;20205;-69
2021/10/27 01:13:29;;;;;;;1999.90;999.90;;;;;;;-0.16;100.00;96482.75;5048714;28;20258;-69
2021/10/27 01:15:56;;;;;;;1999.90;999.90;;;;;;;-0.12;100.00;96482.16;5048867;28;20247;-68
2021/10/27 01:18:23;;;;;;;1999.90;999.90;;;;;;;-0.07;100.00;96479.00;5048156;28;20217;-68
2021/10/27 01:20:52;;;;;;;1999.90;999.90;;;;;;;-0.02;100.00;96486.84;5048402;28;20190;-69
2021/10/27 01:23:20;;;;;;;1999.90;999.90;;;;;;;0.15;100.00;96476.94;5048475;28;20677;-69
2021/10/27 01:25:47;;;;;;;1999.90;999.90;;;;;;;0.13;100.00;96479.69;5048331;28;20229;-69
2021/10/27 01:28:14;;;;;;;1999.90;999.90;;;;;;;0.08;100.00;96481.28;5048205;28;20316;-69
2021/10/27 01:30:41;;;;;;;1999.90;999.90;;;;;;;-0.03;100.00;96485.25;5048436;28;20709;-69
2021/10/27 01:33:08;;;;;;;1999.90;999.90;;;;;;;0.00;100.00;96483.06;5048158;28;20642;-69
2021/10/27 01:35:35;;;;;;;1999.90;999.90;;;;;;;0.02;100.00;96480.31;5048443;28;20233;-68
2021/10/27 01:38:03;;;;;;;1999.90;999.90;;;;;;;-0.08;100.00;96482.53;5048206;28;20208;-68
2021/10/27 01:40:30;;;;;;;1999.90;999.90;;;;;;;0.00;100.00;96482.31;5048120;28;20205;-68
2021/10/27 01:42:58;;;;;;;1999.90;999.90;;;;;;;0.00;100.00;96480.53;5048566;28;20680;-68
2021/10/27 01:45:29;;;;;;;1999.90;999.90;;;;;;;-0.01;100.00;96489.19;5048000;28;20229;-69
2021/10/27 01:47:57;;;;;;;1999.90;999.90;;;;;;;0.07;100.00;96484.81;5048340;28;20298;-68
2021/10/27 01:50:24;;;;;;;1999.90;999.90;;;;;;;-0.01;100.00;96485.84;5048140;28;20731;-68
2021/10/27 01:52:51;;;;;;;1999.90;999.90;;;;;;;-0.02;100.00;96484.28;5048254;28;20229;-69
2021/10/27 01:55:20;;;;;;;1999.90;999.90;;;;;;;-0.03;100.00;96485.25;5048021;28;20223;-68
2021/10/27 01:57:47;;;;;;;1999.90;999.90;;;;;;;-0.04;100.00;96488.78;5047817;28;20681;-69
2021/10/27 02:00:15;;;;;;;1999.90;999.90;;;;;;;-0.25;100.00;96489.84;5048025;28;20234;-69
2021/10/27 02:02:42;;;;;;;1999.90;999.90;;;;;;;-0.42;100.00;96498.91;5048069;28;20194;-68
2021/10/27 02:05:10;;;;;;;1999.90;999.90;;;;;;;-0.24;100.00;96490.63;5047735;28;20292;-68
2021/10/27 02:07:37;;;;;;;1999.90;999.90;;;;;;;-0.26;100.00;96500.28;5048121;28;20197;-69
2021/10/27 02:10:07;;;;;;;1999.90;999.90;;;;;;;-0.27;100.00;96491.03;5048435;28;20726;-68
2021/10/27 02:12:36;;;;;;;1999.90;999.90;;;;;;;-0.56;100.00;96490.50;5048028;28;20270;-68
2021/10/27 02:15:05;;;;;;;1999.90;999.90;;;;;;;-0.55;100.00;96489.50;5048156;28;20729;-68
2021/10/27 02:17:32;;;;;;;1999.90;999.90;;;;;;;-0.47;100.00;96504.63;5047534;28;20669;-68
2021/10/27 02:19:59;;;;;;;1999.90;999.90;;;;;;;-0.42;100.00;96498.91;5047750;28;20215;-69
2021/10/27 02:22:27;;;;;;;1999.90;999.90;;;;;;;-0.31;100.00;96502.63;5047499;28;20193;-68
2021/10/27 02:24:54;;;;;;;1999.90;999.90;;;;;;;-0.31;100.00;96493.22;5047549;28;20741;-68
2021/10/27 02:27:21;;;;;;;1999.90;999.90;;;;;;;-0.32;100.00;96501.84;5047485;28;20204;-69
2021/10/27 02:29:49;;;;;;;1999.90;999.90;;;;;;;-0.42;99.47;96506.56;5046490;28;20217;-68
2021/10/27 02:32:16;;;;;;;1999.90;999.90;;;;;;;-0.39;100.00;96508.72;5047706;28;20197;-69
2021/10/27 02:34:43;;;;;;;1999.90;999.90;;;;;;;-0.36;100.00;96503.25;5047618;28;20205;-69
2021/10/27 02:37:11;;;;;;;1999.90;999.90;;;;;;;-0.26;100.00;96511.28;5047344;28;20226;-69
2021/10/27 02:39:38;;;;;;;1999.90;999.90;;;;;;;-0.37;100.00;96504.22;5047415;28;20257;-69
2021/10/27 02:42:06;;;;;;;1999.90;999.90;;;;;;;-0.35;100.00;96504.03;5047485;28;20208;-68
2021/10/27 02:44:34;;;;;;;1999.90;999.90;;;;;;;-0.33;100.00;96504.59;5047187;28;20319;-69
2021/10/27 02:47:02;;;;;;;1999.90;999.90;;;;;;;-0.48;100.00;96503.06;5047268;28;20258;-69
2021/10/27 02:49:29;;;;;;;1999.90;999.90;;;;;;;-0.49;100.00;96505.78;5047339;28;20222;-69
2021/10/27 02:51:56;;;;;;;1999.90;999.90;;;;;;;-0.46;100.00;96506.19;5047480;28;20623;-68
2021/10/27 02:54:23;;;;;;;1999.90;999.90;;;;;;;-0.60;100.00;96503.88;5047097;28;20201;-69
2021/10/27 02:56:50;;;;;;;1999.90;999.90;;;;;;;-0.58;100.00;96496.78;5047191;28;20700;-69
2021/10/27 02:59:17;;;;;;;1999.90;999.90;;;;;;;-0.57;100.00;96503.47;5047228;28;20193;-69
2021/10/27 03:01:44;;;;;;;1999.90;999.90;;;;;;;-0.50;100.00;96509.34;5047128;28;20194;-68
2021/10/27 03:04:13;;;;;;;1999.90;999.90;;;;;;;-0.43;100.00;96510.09;5047168;28;20204;-69
2021/10/27 03:06:40;;;;;;;1999.90;999.90;;;;;;;-0.45;100.00;96507.00;5047116;28;20213;-68
2021/10/27 03:09:08;;;;;;;1999.90;999.90;;;;;;;-0.39;100.00;96503.63;5046845;28;20715;-68
2021/10/27 03:11:35;;;;;;;1999.90;999.90;;;;;;;-0.44;100.00;96508.53;5047152;28;20577;-68
2021/10/27 03:14:02;;;;;;;1999.90;999.90;;;;;;;-0.50;100.00;96506.81;5044557;28;20201;-68
2021/10/27 03:16:29;;;;;;;1999.90;999.90;;;;;;;-0.50;100.00;96505.00;5047025;28;20261;-68
2021/10/27 03:18:56;;;;;;;1999.90;999.90;;;;;;;-0.43;100.00;96510.09;5046784;28;20197;-68
2021/10/27 03:21:24;;;;;;;1999.90;999.90;;;;;;;-0.42;100.00;96511.69;5047033;28;20203;-68
2021/10/27 03:23:52;;;;;;;1999.90;999.90;;;;;;;-0.41;100.00;96517.59;5046799;28;20249;-68
2021/10/27 03:26:19;;;;;;;1999.90;999.90;;;;;;;-0.60;100.00;96519.94;5047113;28;20277;-69
2021/10/27 03:28:46;;;;;;;1999.90;999.90;;;;;;;-0.66;100.00;96525.06;5046881;28;20224;-68
2021/10/27 03:31:14;;;;;;;1999.90;999.90;;;;;;;-0.51;100.00;96518.00;5046525;28;20668;-68
2021/10/27 03:33:41;;;;;;;1999.90;999.90;;;;;;;-0.62;100.00;96523.69;5046637;28;20630;-68
2021/10/27 03:36:09;;;;;;;1999.90;999.90;;;;;;;-0.53;100.00;96530.16;5046756;28;20205;-68
2021/10/27 03:38:37;;;;;;;1999.90;999.90;;;;;;;-0.46;100.00;96524.06;5046834;28;20194;-69
2021/10/27 03:41:04;;;;;;;1999.90;999.90;;;;;;;-0.51;100.00;96518.00;5046671;28;20246;-68
2021/10/27 03:43:31;;;;;;;1999.90;999.90;;;;;;;-0.53;100.00;96525.84;5050187;28;20683;-68
2021/10/27 03:45:58;;;;;;;1999.90;999.90;;;;;;;-0.53;100.00;96519.94;5049942;28;20229;-69
2021/10/27 03:48:26;;;;;;;1999.90;999.90;;;;;;;-0.50;100.00;96520.31;5049854;28;20193;-68
2021/10/27 03:50:53;;;;;;;1999.90;999.90;;;;;;;-0.48;100.00;96515.81;5050077;28;20250;-68
2021/10/27 03:53:20;;;;;;;1999.90;999.90;;;;;;;-0.40;100.00;96519.16;5049790;28;20236;-69
2021/10/27 03:55:48;;;;;;;1999.90;999.90;;;;;;;-0.43;100.00;96520.31;5049815;28;20258;-69
2021/10/27 03:58:15;;;;;;;1999.90;999.90;;;;;;;-0.36;100.00;96518.56;5050059;28;20340;-68
2021/10/27 04:00:42;;;;;;;1999.90;999.90;;;;;;;-0.29;100.00;96521.88;5049666;28;20242;-69
2021/10/27 04:03:09;;;;;;;1999.90;999.90;;;;;;;-0.32;100.00;96529.16;5049999;28;20201;-68
2021/10/27 04:05:37;;;;;;;1999.90;999.90;;;;;;;-0.34;100.00;96528.56;5049471;28;20603;-69
2021/10/27 04:08:04;;;;;;;1999.90;999.90;;;;;;;-0.36;100.00;96520.31;5049475;28;20197;-69
2021/10/27 04:10:31;;;;;;;1999.90;999.90;;;;;;;-0.34;100.00;96519.13;5049542;28;20320;-68
2021/10/27 04:13:00;;;;;;;1999.90;999.90;;;;;;;-0.35;100.00;96522.69;5049579;28;20197;-68
2021/10/27 04:15:27;;;;;;;1999.90;999.90;;;;;;;-0.28;100.00;96520.88;5049928;28;20201;-68
2021/10/27 04:17:54;;;;;;;1999.90;999.90;;;;;;;-0.35;100.00;96522.69;5049641;28;20197;-68
2021/10/27 04:20:21;;;;;;;1999.90;999.90;;;;;;;-0.34;100.00;96524.22;5049477;28;20235;-69
2021/10/27 04:22:48;;;;;;;1999.90;999.90;;;;;;;-0.32;100.00;96519.72;5049617;28;20201;-68
2021/10/27 04:25:15;;;;;;;1999.90;999.90;;;;;;;-0.29;100.00;96519.31;5049767;28;20205;-69
2021/10/27 04:27:42;;;;;;;1999.90;999.90;;;;;;;-0.31;100.00;96523.84;5049609;28;20614;-69
2021/10/27 04:30:12;;;;;;;1999.90;999.90;;;;;;;-0.35;100.00;96520.13;5049479;28;20224;-68
2021/10/27 04:32:41;;;;;;;1999.90;999.90;;;;;;;-0.35;100.00;96527.78;5049179;28;20262;-68
2021/10/27 04:35:09;;;;;;;1999.90;999.90;;;;;;;-0.28;100.00;96527.75;5049411;28;20200;-68
2021/10/27 04:37:39;;;;;;;1999.90;999.90;;;;;;;-0.29;100.00;96531.28;5049283;28;20557;-68
2021/10/27 04:40:07;;;;;;;1999.90;999.90;;;;;;;-0.28;100.00;96531.09;5049540;28;20281;-68
2021/10/27 04:42:35;;;;;;;1999.90;999.90;;;;;;;-0.37;100.00;96532.31;5049005;28;20320;-68
2021/10/27 04:45:02;;;;;;;1999.90;999.90;;;;;;;-0.32;100.00;96537.59;5048981;28;20648;-68
2021/10/27 04:47:30;;;;;;;1999.90;999.90;;;;;;;-0.34;100.00;96537.00;5049414;28;20733;-68
2021/10/27 04:49:58;;;;;;;1999.90;999.90;;;;;;;-0.34;100.00;96541.31;5048872;28;20220;-69
2021/10/27 04:52:25;;;;;;;1999.90;999.90;;;;;;;-0.24;100.00;96541.69;5048859;28;20205;-68
2021/10/27 04:54:52;;;;;;;1999.90;999.90;;;;;;;-0.22;100.00;96543.09;5048152;28;20197;-68
2021/10/27 04:57:19;;;;;;;1999.90;999.90;;;;;;;-0.26;100.00;96541.91;5049073;28;20258;-68
2021/10/27 04:59:47;;;;;;;1999.90;999.90;;;;;;;-0.18;100.00;96535.78;5048971;28;20680;-68
2021/10/27 05:02:15;;;;;;;1999.90;999.90;;;;;;;-0.24;100.00;96545.03;5048641;28;21018;-68
2021/10/27 05:04:44;;;;;;;1999.90;999.90;;;;;;;-0.19;100.00;96547.78;5048735;28;20288;-68
2021/10/27 05:07:14;;;;;;;1999.90;999.90;;;;;;;-0.18;100.00;96551.13;5048519;28;20569;-68
2021/10/27 05:09:42;;;;;;;1999.90;999.90;;;;;;;-0.16;100.00;96551.72;5048530;28;20716;-68
2021/10/27 05:12:10;;;;;;;1999.90;999.90;;;;;;;-0.17;100.00;96557.81;5048660;28;20273;-68
2021/10/27 05:14:38;;;;;;;1999.90;999.90;;;;;;;-0.07;100.00;96560.72;5048501;28;20190;-68
2021/10/27 05:17:09;;;;;;;1999.90;999.90;;;;;;;-0.04;100.00;96566.22;5048687;28;20200;-68
2021/10/27 05:19:37;;;;;;;1999.90;999.90;;;;;;;-0.11;100.00;96568.03;5048711;28;20219;-68
2021/10/27 05:22:06;;;;;;;1999.90;999.90;;;;;;;-0.13;100.00;96567.41;5049016;28;20197;-68
2021/10/27 05:24:33;;;;;;;1999.90;999.90;;;;;;;-0.06;100.00;96575.09;5048540;28;20692;-69
2021/10/27 05:27:00;;;;;;;1999.90;999.90;;;;;;;-0.03;100.00;96577.22;5048766;28;20202;-68
2021/10/27 05:29:27;;;;;;;1999.90;999.90;;;;;;;-0.01;100.00;96578.63;5048546;28;20704;-68
2021/10/27 05:31:55;;;;;;;1999.90;999.90;;;;;;;0.00;100.00;96577.59;5048292;28;20212;-68
2021/10/27 05:34:22;;;;;;;1999.90;999.90;;;;;;;0.02;100.00;96589.41;5048433;28;20193;-68
2021/10/27 05:36:50;;;;;;;1999.90;999.90;;;;;;;0.05;100.00;96589.03;5048118;28;20197;-68
2021/10/27 05:39:18;;;;;;;1999.90;999.90;;;;;;;0.07;100.00;96592.13;5048186;28;20193;-68
2021/10/27 05:41:48;;;;;;;1999.90;999.90;;;;;;;0.13;100.00;96589.59;5048100;28;20726;-69
2021/10/27 05:44:16;;;;;;;1999.90;999.90;;;;;;;0.09;100.00;96590.97;5048015;28;20395;-68
2021/10/27 05:46:45;;;;;;;1999.90;999.90;;;;;;;0.22;100.00;96590.13;5047891;28;20205;-69
2021/10/27 05:49:20;;;;;;;1999.90;999.90;;;;;;;0.36;100.00;96591.66;5048012;28;20248;-69
2021/10/27 05:51:50;;;;;;;1999.90;999.90;;;;;;;0.45;100.00;96595.56;5048058;28;20185;-68
2021/10/27 05:57:04;;;;;;;1999.90;999.90;;;;;;;0.64;100.00;96615.19;5047399;28;20676;-69
2021/10/27 05:59:31;;;;;;;1999.90;999.90;;;;;;;0.64;100.00;96612.63;5047543;28;20209;-69
2021/10/27 06:01:59;;;;;;;1999.90;999.90;;;;;;;0.85;100.00;96614.88;5047733;28;20197;-69
2021/10/27 06:04:26;;;;;;;1999.90;999.90;;;;;;;0.92;100.00;96619.19;5047340;28;20697;-69
2021/10/27 06:06:53;;;;;;;1999.90;999.90;;;;;;;1.10;100.00;96619.28;5047944;28;20665;-69
2021/10/27 06:09:22;;;;;;;1999.90;999.90;;;;;;;1.20;100.00;96625.53;5047773;28;20220;-69
2021/10/27 06:11:49;;;;;;;1999.90;999.90;;;;;;;1.31;100.00;96621.53;5047947;28;20206;-69
2021/10/27 06:14:16;;;;;;;1999.90;999.90;;;;;;;1.41;100.00;96621.06;5047744;28;20202;-69
2021/10/27 06:16:43;;;;;;;1999.90;999.90;;;;;;;1.52;100.00;96623.75;5047833;28;20250;-69
2021/10/27 06:19:10;;;;;;;1999.90;999.90;;;;;;;1.66;100.00;96630.34;5047804;28;20202;-69
2021/10/27 06:21:39;;;;;;;1999.90;999.90;;;;;;;1.88;100.00;96629.97;5047809;28;20202;-69
2021/10/27 06:24:06;;;;;;;1999.90;999.90;;;;;;;2.00;100.00;96628.28;5047603;28;20719;-69
2021/10/27 06:26:35;;;;;;;1999.90;999.90;;;;;;;2.28;100.00;96631.19;5047788;28;20204;-69
2021/10/27 06:29:05;;;;;;;1999.90;999.90;;;;;;;2.73;100.00;96625.75;5047685;28;20219;-69
2021/10/27 06:31:38;;;;;;;1999.90;999.90;;;;;;;2.97;100.00;96633.34;5047461;28;20208;-69
2021/10/27 06:34:21;;;;;;;1999.90;999.90;;;;;;;3.18;100.00;96637.25;5047244;27;20191;-69
2021/10/27 06:37:11;;;;;;;1999.90;999.90;;;;;;;3.54;100.00;96645.84;5027603;28;20720;-67
2021/10/27 06:47:52;;;;;;;1999.90;999.90;;;;;;;4.41;97.55;96654.50;5027435;28;20221;-69
2021/10/27 06:50:20;;;;;;;1999.90;999.90;;;;;;;4.48;95.81;96655.19;5027554;28;20310;-69
2021/10/27 06:52:47;;;;;;;1999.90;999.90;;;;;;;4.68;96.68;96653.78;5027829;28;20264;-69
2021/10/27 06:55:15;;;;;;;1999.90;999.90;;;;;;;4.90;96.45;96655.75;5027540;28;20205;-69
2021/10/27 06:57:44;;;;;;;1999.90;999.90;;;;;;;5.05;94.27;96649.09;5027217;28;20209;-69
2021/10/27 07:00:20;;;;;;;1999.90;999.90;;;;;;;5.22;93.29;96651.72;5027513;28;20202;-69
2021/10/27 07:03:04;;;;;;;1999.90;999.90;;;;;;;5.35;91.58;96655.81;5027256;28;20696;-69
2021/10/27 07:06:09;;;;;;;1999.90;999.90;;;;;;;5.11;93.95;96649.97;5027121;28;20178;-69
2021/10/27 07:16:50;;;;;;;1999.90;999.90;;;;;;;5.90;93.22;96648.25;5048300;28;20249;-69
2021/10/27 07:19:17;;;;;;;1999.90;999.90;;;;;;;5.95;92.80;96641.38;5050465;28;20203;-69
2021/10/27 07:21:44;;;;;;;1999.90;999.90;;;;;;;6.08;93.75;96644.66;5050578;28;20729;-69
2021/10/27 07:24:11;;;;;;;1999.90;999.90;;;;;;;6.26;93.34;96641.81;5050395;28;20655;-69
2021/10/27 07:26:38;;;;;;;1999.90;999.90;;;;;;;6.29;92.11;96636.16;5050580;28;20276;-68
2021/10/27 07:29:06;;;;;;;1999.90;999.90;;;;;;;6.16;93.22;96646.84;5050223;28;20204;-68
2021/10/27 07:31:34;;;;;;;1999.90;999.90;;;;;;;6.22;93.86;96644.09;5050418;28;20225;-68
2021/10/27 07:34:07;;;;;;;1999.90;999.90;;;;;;;6.47;94.79;96641.09;5050440;28;20254;-69
2021/10/27 07:42:15;;;;;;;1999.90;999.90;;;;;;;7.14;89.79;96638.22;5025228;28;20640;-68
2021/10/27 07:44:43;;;;;;;1999.90;999.90;;;;;;;7.19;89.81;96633.13;5030048;28;20691;-68
2021/10/27 07:47:11;;;;;;;1999.90;999.90;;;;;;;7.18;91.26;96629.75;5030034;28;20202;-68
2021/10/27 07:49:38;;;;;;;1999.90;999.90;;;;;;;7.38;90.95;96630.97;5030041;28;20257;-68
2021/10/27 07:52:06;;;;;;;1999.90;999.90;;;;;;;7.55;90.07;96629.84;5030566;28;20271;-68
2021/10/27 07:54:33;;;;;;;1999.90;999.90;;;;;;;7.91;88.27;96637.91;5030077;28;20202;-68
2021/10/27 07:57:01;;;;;;;1999.90;999.90;;;;;;;8.09;88.62;96640.09;5029998;28;20205;-68
2021/10/27 07:59:28;;;;;;;1999.90;999.90;;;;;;;8.00;87.01;96636.41;5030183;28;20691;-68
2021/10/27 08:01:56;;;;;;;1999.90;999.90;;;;;;;7.96;88.12;96638.72;5036361;28;20280;-68
2021/10/27 08:04:23;;;;;;;1999.90;999.90;;;;;;;8.28;87.40;96641.25;5049638;28;21024;-68
2021/10/27 08:06:51;;;;;;;1999.90;999.90;;;;;;;8.19;86.35;96642.75;5049758;28;20228;-69
2021/10/27 08:09:19;;;;;;;1999.90;999.90;;;;;;;7.96;86.67;96637.94;5049645;28;20193;-69
2021/10/27 08:11:46;;;;;;;1999.90;999.90;;;;;;;7.85;87.58;96634.50;5049869;28;20670;-68
2021/10/27 08:14:13;;;;;;;1999.90;999.90;;;;;;;8.18;86.38;96638.59;5049637;28;20244;-68
2021/10/27 08:16:40;;;;;;;1999.90;999.90;;;;;;;8.48;86.32;96630.25;5049550;28;20258;-68
2021/10/27 08:19:09;;;;;;;1999.90;999.90;;;;;;;8.70;86.29;96632.69;5049632;28;20229;-68
2021/10/27 08:21:36;;;;;;;1999.90;999.90;;;;;;;8.72;84.90;96628.06;5049535;28;20703;-69
2021/10/27 08:24:04;;;;;;;1999.90;999.90;;;;;;;8.74;82.39;96629.34;5049754;28;20289;-68
2021/10/27 08:26:31;;;;;;;1999.90;999.90;;;;;;;8.68;82.91;96637.34;5049803;28;20235;-68
2021/10/27 08:29:00;;;;;;;1999.90;999.90;;;;;;;9.20;82.91;96624.31;5049638;28;20193;-68
2021/10/27 08:31:36;;;;;;;1999.90;999.90;;;;;;;9.38;81.15;96627.19;5049298;28;20274;-68
2021/10/27 08:34:09;;;;;;;1999.90;999.90;;;;;;;9.39;79.15;96628.75;5049362;28;20675;-68
2021/10/27 08:36:37;;;;;;;1999.90;999.90;;;;;;;9.22;80.92;96617.03;5029604;28;20219;-68
2021/10/27 08:39:06;;;;;;;1999.90;999.90;;;;;;;9.16;81.65;96618.88;5029605;28;20690;-68
2021/10/27 08:41:33;;;;;;;1999.90;999.90;;;;;;;9.29;83.08;96623.56;5029498;28;20194;-68
2021/10/27 08:44:01;;;;;;;1999.90;999.90;;;;;;;9.21;81.24;96626.66;5029832;28;20237;-68
2021/10/27 08:46:29;;;;;;;1999.90;999.90;;;;;;;9.29;79.27;96620.97;5029986;28;20259;-68
2021/10/27 08:48:58;;;;;;;1999.90;999.90;;;;;;;9.52;80.68;96617.88;5029288;28;20198;-68
2021/10/27 08:51:28;;;;;;;1999.90;999.90;;;;;;;9.32;79.51;96615.25;5029465;28;20369;-68
2021/10/27 08:53:57;;;;;;;1999.90;999.90;;;;;;;9.32;80.08;96612.66;5029210;28;20198;-68
2021/10/27 08:56:26;;;;;;;1999.90;999.90;;;;;;;9.66;80.52;96609.59;5029293;28;20194;-68
2021/10/27 08:58:57;;;;;;;1999.90;999.90;;;;;;;9.84;78.86;96611.66;5029289;28;20329;-68
2021/10/27 09:01:34;;;;;;;1999.90;999.90;;;;;;;10.03;77.39;96617.09;5029431;28;20182;-68
2021/10/27 09:04:18;;;;;;;1999.90;999.90;;;;;;;10.19;76.21;96613.47;5028850;28;20229;-68
2021/10/27 09:07:05;;;;;;;1999.90;999.90;;;;;;;10.34;76.45;96611.63;5028996;28;20225;-68
2021/10/27 09:15:43;;;;;;;1999.90;999.90;;;;;;;10.40;75.00;96602.00;5028963;28;20766;-68
2021/10/27 09:38:03;;;;;;;1999.90;999.90;;;;;;;10.87;74.01;96585.94;5017584;28;20729;-69
2021/10/27 09:40:59;;;;;;;1999.90;999.90;;;;;;;10.63;73.47;96587.63;5048024;28;20193;-68
2021/10/27 10:06:07;;;;;;;1999.90;999.90;;;;;;;11.46;73.61;96567.63;5109116;28;20724;-69
2021/10/27 10:08:34;;;;;;;1999.90;999.90;;;;;;;11.59;72.69;96561.81;5062322;28;20250;-68
2021/10/27 10:11:01;;;;;;;1999.90;999.90;;;;;;;11.67;72.37;96563.03;5047769;28;20260;-68
2021/10/27 10:13:30;;;;;;;1999.90;999.90;;;;;;;11.80;70.21;96557.25;5048067;28;20194;-68
2021/10/27 10:15:58;;;;;;;1999.90;999.90;;;;;;;11.88;69.06;96548.81;5047729;28;20205;-68
2021/10/27 10:18:26;;;;;;;1999.90;999.90;;;;;;;11.93;71.10;96551.38;5047665;28;20205;-68
2021/10/27 10:20:53;;;;;;;1999.90;999.90;;;;;;;11.66;71.77;96549.25;5047762;28;20299;-68
2021/10/27 10:23:22;;;;;;;1999.90;999.90;;;;;;;11.97;69.64;96547.16;5047897;28;20197;-69
2021/10/27 10:25:52;;;;;;;1999.90;999.90;;;;;;;12.11;69.13;96549.13;5047890;28;20300;-69
2021/10/27 10:28:22;;;;;;;1999.90;999.90;;;;;;;12.20;70.30;96542.25;5048010;28;20217;-69
2021/10/27 10:30:53;;;;;;;1999.90;999.90;;;;;;;12.32;71.09;96537.44;5047856;28;20575;-69
2021/10/27 10:33:34;;;;;;;1999.90;999.90;;;;;;;12.46;69.65;96539.06;5047656;28;20190;-68
2021/10/27 10:36:04;;;;;;;1999.90;999.90;;;;;;;12.19;69.83;96535.50;5047555;28;20204;-68
2021/10/27 10:41:44;;;;;;;1999.90;999.90;;;;;;;12.63;69.19;96527.41;5044626;28;20205;-68
2021/10/27 11:02:22;;;;;;;1999.90;999.90;;;;;;;12.68;69.07;96503.88;5046888;28;20197;-69
2021/10/27 11:24:39;;;;;;;1999.90;999.90;;;;;;;13.15;67.21;96484.72;5047022;28;20183;-69
2021/10/27 11:38:37;;;;;;;1999.90;999.90;;;;;;;13.41;65.42;96475.41;5107815;28;20393;-68
2021/10/27 11:41:15;;;;;;;1999.90;999.90;;;;;;;13.51;68.27;96470.00;5107972;28;20191;-67
2021/10/27 11:43:57;;;;;;;1999.90;999.90;;;;;;;13.67;66.69;96457.47;5107634;28;20568;-68
2021/10/27 11:46:42;;;;;;;1999.90;999.90;;;;;;;13.68;66.73;96465.03;5107688;28;20281;-67
2021/10/27 11:49:10;;;;;;;1999.90;999.90;;;;;;;13.70;65.66;96470.72;5107142;28;20204;-68
2021/10/27 11:51:38;;;;;;;1999.90;999.90;;;;;;;13.82;66.11;96464.25;5107592;28;20228;-68
2021/10/27 11:54:11;;;;;;;1999.90;999.90;;;;;;;13.91;65.45;96458.06;5107753;28;20195;-68
2021/10/27 11:56:39;;;;;;;1999.90;999.90;;;;;;;14.03;64.21;96460.97;5107815;28;20651;-68
2021/10/27 11:59:06;;;;;;;1999.90;999.90;;;;;;;14.10;62.88;96452.72;5107464;28;20187;-68
2021/10/27 12:01:37;;;;;;;1999.90;999.90;;;;;;;14.05;62.14;96451.00;5107606;28;20679;-68
2021/10/27 12:04:07;;;;;;;1999.90;999.90;;;;;;;14.09;63.89;96449.38;5107892;28;20543;-68
2021/10/27 12:06:43;;;;;;;1999.90;999.90;;;;;;;13.96;64.11;96449.34;5107501;28;20230;-68
2021/10/27 12:09:29;;;;;;;1999.90;999.90;;;;;;;14.04;64.56;96446.84;5107211;28;20294;-68
2021/10/27 12:12:09;;;;;;;1999.90;999.90;;;;;;;13.96;63.87;96449.34;5107246;28;20179;-68
2021/10/27 12:14:44;;;;;;;1999.90;999.90;;;;;;;14.22;63.19;96445.94;5107167;28;20190;-68
2021/10/27 12:17:26;;;;;;;1999.90;999.90;;;;;;;14.23;62.69;96449.34;5107015;28;20265;-68
2021/10/27 12:19:53;;;;;;;1999.90;999.90;;;;;;;14.16;64.13;96439.28;5107289;28;20391;-68
2021/10/27 12:22:22;;;;;;;1999.90;999.90;;;;;;;14.20;64.63;96444.69;5107284;28;20199;-68
2021/10/27 12:24:54;;;;;;;1999.90;999.90;;;;;;;14.38;63.24;96448.28;5107228;28;20199;-68
2021/10/27 12:27:28;;;;;;;1999.90;999.90;;;;;;;14.45;63.67;96440.78;5106819;28;20270;-68
2021/10/27 12:29:56;;;;;;;1999.90;999.90;;;;;;;14.56;61.61;96440.28;5106620;28;20793;-68
2021/10/27 12:32:26;;;;;;;1999.90;999.90;;;;;;;14.46;60.48;96432.66;5106671;28;20229;-68
2021/10/27 12:34:55;;;;;;;1999.90;999.90;;;;;;;14.53;60.42;96434.88;5106940;28;20203;-68
2021/10/27 12:37:42;;;;;;;1999.90;999.90;;;;;;;14.58;60.70;96434.78;5106579;28;20248;-68
2021/10/27 12:40:13;;;;;;;1999.90;999.90;;;;;;;14.51;62.41;96424.72;5099847;28;21002;-68
2021/10/27 12:42:41;;;;;;;1999.90;999.90;;;;;;;14.60;62.66;96422.94;5093096;28;20184;-67
2021/10/27 12:45:09;;;;;;;1999.90;999.90;;;;;;;14.61;63.16;96426.31;5093155;28;20625;-68
2021/10/27 12:47:39;;;;;;;1999.90;999.90;;;;;;;14.58;62.73;96421.69;5092927;28;20192;-68
2021/10/27 12:50:10;;;;;;;1999.90;999.90;;;;;;;14.65;60.57;96429.91;5092779;28;20265;-68
2021/10/27 12:52:41;;;;;;;1999.90;999.90;;;;;;;14.65;62.52;96427.28;5093172;28;20208;-68
2021/10/27 12:55:14;;;;;;;1999.90;999.90;;;;;;;14.67;60.50;96421.75;5093076;28;20267;-68
2021/10/27 12:57:57;;;;;;;1999.90;999.90;;;;;;;14.84;59.54;96421.91;5092815;28;20198;-68
2021/10/27 13:00:30;;;;;;;1999.90;999.90;;;;;;;14.71;60.80;96412.25;5092703;28;20222;-68
2021/10/27 13:03:27;;;;;;;1999.90;999.90;;;;;;;14.74;59.79;96411.66;5092584;28;20237;-68
2021/10/27 13:06:02;;;;;;;1999.90;999.90;;;;;;;14.92;60.35;96405.47;5092742;28;20250;-68
2021/10/27 13:08:51;;;;;;;1999.90;999.90;;;;;;;14.64;60.03;96408.19;5092666;28;20295;-68